Time;durP1;ratioP1;P1;durP2;ratioP2;P2;SDS_P1;SDS_P2;PMS_P1;PMS_P2;Temp;Humidity;BMP_temperature;BMP_pressure;BME280_temperature;BME280_humidity;BME280_pressure;Samples;Min_cycle;Max_cycle;Signal;HPM_P1;HPM_P2
2024/01/01 00:00:27;;;;;;;126.45;56.05;;;;;;;6.28;76.58;99888.75;3126804;28;20122;-68
2024/01/01 00:01:58;;;;;;;127.18;56.58;;;;;;;6.28;76.42;99896.50;3128204;28;20178;-68
2024/01/01 00:03:30;;;;;;;115.55;53.83;;;;;;;6.26;76.68;99898.25;3127051;28;20190;-67
2024/01/01 00:05:01;;;;;;;117.90;54.90;;;;;;;6.25;76.89;99894.84;3126690;28;20057;-67
2024/01/01 00:06:33;;;;;;;116.90;56.33;;;;;;;6.25;76.70;99899.16;3127046;28;20904;-69
2024/01/01 00:08:04;;;;;;;127.88;57.10;;;;;;;6.24;76.95;99895.72;3127125;28;20053;-67
2024/01/01 00:09:37;;;;;;;123.38;56.78;;;;;;;6.24;77.09;99894.84;3126948;28;20052;-68
2024/01/01 00:11:08;;;;;;;127.00;55.88;;;;;;;6.21;77.05;99900.13;3126811;28;20455;-67
2024/01/01 00:12:40;;;;;;;121.85;54.58;;;;;;;6.20;77.10;99898.44;3126620;28;20125;-67
2024/01/01 00:14:11;;;;;;;129.50;57.15;;;;;;;6.20;77.06;99893.25;3129306;28;20122;-67
2024/01/01 00:15:43;;;;;;;120.22;54.45;;;;;;;6.09;76.87;99880.59;3117044;28;20518;-67
2024/01/01 00:17:14;;;;;;;121.30;54.97;;;;;;;6.19;77.11;99892.41;3128621;28;20061;-67
2024/01/01 00:18:47;;;;;;;118.55;54.97;;;;;;;6.20;77.04;99898.44;3129067;28;20088;-67
2024/01/01 00:20:18;;;;;;;124.30;58.00;;;;;;;6.16;77.15;99895.06;3129181;28;20888;-67
2024/01/01 00:22:08;;;;;;;119.75;56.33;;;;;;;6.16;77.11;99895.06;3129048;28;20044;-67
2024/01/01 00:23:39;;;;;;;141.50;61.35;;;;;;;6.15;77.07;99902.00;3129160;28;20491;-67
2024/01/01 00:25:12;;;;;;;141.80;64.13;;;;;;;6.17;77.43;99896.75;3128863;28;20055;-67
2024/01/01 00:26:43;;;;;;;135.63;58.55;;;;;;;6.16;77.17;99905.41;3129352;28;20053;-67
2024/01/01 00:28:15;;;;;;;128.15;58.33;;;;;;;6.12;77.35;99899.47;3129064;28;20049;-68
2024/01/01 00:29:46;;;;;;;122.20;55.65;;;;;;;6.17;77.72;99894.19;3128825;28;20487;-67
2024/01/01 00:31:18;;;;;;;119.32;54.92;;;;;;;6.17;77.55;99898.50;3129065;28;20107;-67
2024/01/01 00:32:48;;;;;;;125.03;55.70;;;;;;;6.15;77.70;99896.81;3128921;28;20484;-67
2024/01/01 00:34:21;;;;;;;129.68;57.17;;;;;;;6.14;77.89;99902.84;3128819;28;20063;-67
2024/01/01 00:35:52;;;;;;;129.55;58.08;;;;;;;6.15;77.98;99901.13;3133110;28;20052;-68
2024/01/01 00:37:24;;;;;;;126.88;56.22;;;;;;;6.14;78.12;99895.09;3129033;28;20505;-67
2024/01/01 00:38:55;;;;;;;131.15;58.08;;;;;;;5.71;78.08;99825.53;3128709;28;20057;-67
2024/01/01 00:40:28;;;;;;;119.78;54.38;;;;;;;6.19;78.04;99897.59;3129056;28;20442;-67
2024/01/01 00:41:59;;;;;;;117.15;55.47;;;;;;;6.20;78.14;99898.44;3129098;28;20059;-67
2024/01/01 00:43:32;;;;;;;129.82;56.03;;;;;;;6.20;78.03;99891.50;3128386;28;20045;-66
2024/01/01 00:45:03;;;;;;;131.57;58.50;;;;;;;6.20;77.98;99895.84;3129268;28;20110;-67
2024/01/01 00:46:35;;;;;;;127.55;55.53;;;;;;;6.19;78.05;99897.59;3128991;28;20057;-68
2024/01/01 00:48:07;;;;;;;125.32;55.47;;;;;;;6.21;77.97;99895.81;3128877;28;20052;-68
2024/01/01 00:49:38;;;;;;;114.47;54.13;;;;;;;6.20;77.88;99895.84;3128948;28;20096;-68
2024/01/01 00:51:09;;;;;;;122.43;54.13;;;;;;;6.18;77.87;99888.09;3128998;28;20056;-69
2024/01/01 00:52:41;;;;;;;110.95;55.40;;;;;;;6.19;77.65;99896.75;3128554;28;20095;-69
2024/01/01 00:54:12;;;;;;;116.93;53.58;;;;;;;6.18;77.74;99895.03;3128672;28;20048;-69
2024/01/01 00:55:46;;;;;;;114.20;54.05;;;;;;;6.18;77.74;99890.69;3128885;28;20056;-69
2024/01/01 00:57:17;;;;;;;112.65;54.40;;;;;;;6.17;77.59;99891.59;3128535;28;20115;-69
2024/01/01 00:58:49;;;;;;;113.28;53.90;;;;;;;6.18;77.58;99897.59;3134570;28;20060;-69
2024/01/01 01:00:20;;;;;;;116.88;53.15;;;;;;;6.16;77.60;99889.91;3128428;28;20053;-68
2024/01/01 01:01:52;;;;;;;120.85;55.90;;;;;;;6.16;77.67;99895.06;3128655;28;20569;-68
2024/01/01 01:03:23;;;;;;;114.57;53.88;;;;;;;6.14;77.55;99884.75;3128797;28;20053;-69
2024/01/01 01:04:55;;;;;;;124.05;55.53;;;;;;;6.13;77.49;99877.06;3128737;28;20136;-68
2024/01/01 01:06:26;;;;;;;116.35;55.42;;;;;;;6.12;77.59;99878.81;3128613;28;20052;-68
2024/01/01 01:07:58;;;;;;;122.60;55.95;;;;;;;6.12;77.47;99878.81;3128618;28;20053;-68
2024/01/01 01:09:30;;;;;;;120.57;55.77;;;;;;;6.10;77.57;99877.97;3128518;28;20067;-68
2024/01/01 01:11:03;;;;;;;119.82;54.70;;;;;;;6.11;77.67;99884.00;3128556;28;20373;-68
2024/01/01 01:12:34;;;;;;;;;;;;;;;5.77;77.83;99851.22;3116694;28;20640;-68
2024/01/01 01:14:06;;;;;;;121.95;55.08;;;;;;;5.96;77.82;99880.06;3128075;28;20039;-68
2024/01/01 01:15:38;;;;;;;126.82;57.15;;;;;;;5.97;77.99;99873.16;3128332;28;20612;-68
2024/01/01 01:17:09;;;;;;;118.30;55.58;;;;;;;5.98;77.77;99875.72;3128258;28;20458;-68
2024/01/01 01:18:40;;;;;;;125.90;58.35;;;;;;;5.98;77.73;99865.38;3128257;28;20056;-68
2024/01/01 01:20:12;;;;;;;111.18;53.45;;;;;;;5.95;77.50;99862.88;3128436;28;20080;-68
2024/01/01 01:21:44;;;;;;;123.63;54.08;;;;;;;5.97;77.70;99870.56;3128217;28;20045;-68
2024/01/01 01:23:16;;;;;;;115.28;55.33;;;;;;;5.96;77.79;99874.88;3128333;28;20070;-68
2024/01/01 01:24:46;;;;;;;117.20;55.15;;;;;;;5.95;77.86;99867.19;3128250;28;20049;-68
2024/01/01 01:26:20;;;;;;;113.97;55.28;;;;;;;5.66;77.94;99820.47;3128201;28;20198;-66
2024/01/01 01:27:51;;;;;;;121.57;54.97;;;;;;;5.91;78.13;99867.19;3128256;28;20491;-68
2024/01/01 01:29:22;;;;;;;125.72;54.75;;;;;;;5.93;78.35;99868.06;3128135;28;20063;-68
2024/01/01 01:30:53;;;;;;;120.80;55.28;;;;;;;5.91;78.22;99868.94;3128355;28;20059;-68
2024/01/01 01:32:25;;;;;;;117.82;55.28;;;;;;;5.90;78.28;99859.50;3128322;28;20218;-68
2024/01/01 01:33:56;;;;;;;123.90;57.97;;;;;;;5.90;78.34;99862.94;3127998;28;20103;-68
2024/01/01 01:35:28;;;;;;;120.05;55.30;;;;;;;5.90;78.53;99862.09;3128098;28;20118;-68
2024/01/01 01:36:58;;;;;;;132.25;58.75;;;;;;;5.89;78.39;99860.41;3128100;28;20057;-68
2024/01/01 01:38:31;;;;;;;129.90;56.53;;;;;;;5.89;78.52;99860.41;3128283;28;20057;-68
2024/01/01 01:40:03;;;;;;;118.65;55.45;;;;;;;5.83;78.53;99851.06;3128023;28;20560;-68
2024/01/01 01:41:37;;;;;;;126.80;58.67;;;;;;;5.89;78.57;99863.81;3127811;28;20107;-68
2024/01/01 01:43:19;;;;;;;127.45;58.28;;;;;;;5.89;78.47;99868.16;3127402;28;20049;-68
2024/01/01 01:44:51;;;;;;;137.38;63.30;;;;;;;5.86;78.56;99863.91;3128069;28;20449;-68
2024/01/01 01:46:22;;;;;;;141.77;63.40;;;;;;;5.87;78.49;99862.16;3128004;28;20048;-68
2024/01/01 01:47:54;;;;;;;134.45;60.90;;;;;;;5.86;78.62;99863.91;3127923;28;20049;-68
2024/01/01 01:49:25;;;;;;;139.63;61.33;;;;;;;5.85;78.37;99861.34;3128155;28;20053;-68
2024/01/01 01:50:57;;;;;;;148.93;62.97;;;;;;;5.86;78.47;99863.91;3127792;28;20053;-68
2024/01/01 01:52:28;;;;;;;130.18;61.67;;;;;;;5.84;78.41;99864.81;3127704;28;20053;-67
2024/01/01 01:54:01;;;;;;;130.15;61.10;;;;;;;5.83;78.41;99864.00;3131290;28;20075;-68
2024/01/01 01:55:32;;;;;;;130.57;60.53;;;;;;;5.82;78.32;99858.84;3133840;28;20402;-67
2024/01/01 01:57:06;;;;;;;134.00;60.75;;;;;;;5.06;78.21;99741.03;3127860;28;20589;-67
2024/01/01 01:58:40;;;;;;;128.15;59.90;;;;;;;5.80;78.53;99858.91;3127650;28;20557;-67
2024/01/01 02:00:13;;;;;;;124.63;58.40;;;;;;;5.78;78.33;99860.66;3127816;28;20063;-68
2024/01/01 02:01:44;;;;;;;124.93;58.05;;;;;;;5.76;78.37;99859.00;3127603;28;20526;-68
2024/01/01 02:03:16;;;;;;;122.60;59.03;;;;;;;5.73;78.35;99853.91;3127777;28;20060;-68
2024/01/01 02:04:47;;;;;;;128.18;57.83;;;;;;;5.72;78.35;99847.03;3127542;28;20053;-67
2024/01/01 02:06:19;;;;;;;122.90;56.90;;;;;;;5.69;78.23;99851.38;3127540;28;20048;-68
2024/01/01 02:07:50;;;;;;;121.88;54.88;;;;;;;5.66;78.24;99848.88;3127698;28;20057;-68
2024/01/01 02:09:22;;;;;;;113.53;54.88;;;;;;;5.64;78.11;99848.06;3127753;28;20519;-68
2024/01/01 02:10:53;;;;;;;122.20;56.50;;;;;;;5.61;78.11;99844.72;3127496;28;20074;-67
2024/01/01 02:12:26;;;;;;;128.82;57.90;;;;;;;5.61;78.31;99848.13;3127907;28;20064;-68
2024/01/01 02:14:07;;;;;;;125.65;58.90;;;;;;;5.58;78.30;99849.94;3127500;28;20072;-68
2024/01/01 02:15:39;;;;;;;135.15;61.47;;;;;;;5.57;78.42;99849.09;3127739;28;20114;-67
2024/01/01 02:17:09;;;;;;;134.35;60.85;;;;;;;5.56;78.54;99846.56;3127668;28;20292;-68
2024/01/01 02:18:42;;;;;;;126.47;56.92;;;;;;;5.56;78.51;99849.13;3127819;28;20583;-68
2024/01/01 02:20:13;;;;;;;119.70;54.80;;;;;;;5.54;78.62;99843.19;3127271;28;20059;-68
2024/01/01 02:21:45;;;;;;;123.35;56.88;;;;;;;5.54;78.53;99845.75;3127633;28;20057;-67
2024/01/01 02:23:18;;;;;;;116.53;53.90;;;;;;;5.53;78.73;99842.34;3127588;28;20053;-69
2024/01/01 02:24:50;;;;;;;123.47;55.97;;;;;;;5.52;78.83;99837.19;3127526;28;20056;-67
2024/01/01 02:26:21;;;;;;;118.63;55.13;;;;;;;5.53;78.87;99836.28;3127570;28;20052;-68
2024/01/01 02:27:52;;;;;;;113.00;53.67;;;;;;;5.46;78.64;99828.69;3127589;28;20583;-67
2024/01/01 02:29:23;;;;;;;110.70;53.33;;;;;;;5.50;78.89;99833.78;3127675;28;20616;-67
2024/01/01 02:30:55;;;;;;;115.97;54.63;;;;;;;5.47;78.70;99834.69;3127489;28;20065;-70
2024/01/01 02:32:26;;;;;;;123.57;56.58;;;;;;;5.46;78.98;99833.00;3127205;28;20057;-67
2024/01/01 02:33:58;;;;;;;122.43;53.92;;;;;;;5.42;78.93;99834.81;3127341;28;20612;-68
2024/01/01 02:35:29;;;;;;;121.45;54.50;;;;;;;4.85;79.19;99733.75;3128002;28;20922;-68
2024/01/01 02:37:00;;;;;;;118.93;54.65;;;;;;;5.42;78.99;99837.41;3127310;28;20045;-68
2024/01/01 02:38:33;;;;;;;116.70;54.80;;;;;;;5.42;78.90;99828.81;3127448;28;20068;-67
2024/01/01 02:40:08;;;;;;;118.22;55.42;;;;;;;5.41;78.90;99832.25;3127556;28;20059;-67
2024/01/01 02:41:39;;;;;;;117.88;56.30;;;;;;;5.09;78.66;99790.00;3127581;28;20063;-68
2024/01/01 02:43:11;;;;;;;119.00;52.72;;;;;;;5.36;78.88;99834.97;3127118;28;20060;-68
2024/01/01 02:44:43;;;;;;;118.35;54.97;;;;;;;5.36;78.78;99834.13;3127148;28;20075;-70
2024/01/01 02:46:14;;;;;;;118.70;52.85;;;;;;;5.34;78.90;99828.13;3127413;28;20057;-67
2024/01/01 02:47:45;;;;;;;125.85;57.10;;;;;;;5.35;78.91;99825.50;3127620;28;20132;-68
2024/01/01 02:49:16;;;;;;;125.65;55.90;;;;;;;5.34;79.00;99828.13;3127350;28;20064;-68
2024/01/01 02:50:48;;;;;;;130.55;58.22;;;;;;;5.33;78.95;99826.44;3128118;28;20049;-69
2024/01/01 02:52:19;;;;;;;125.75;57.75;;;;;;;5.32;78.99;99829.91;3127586;28;20060;-69
2024/01/01 02:53:52;;;;;;;115.65;54.88;;;;;;;5.31;78.98;99825.63;3127080;28;20194;-69
2024/01/01 02:55:23;;;;;;;;;;;;;;;5.15;79.40;99823.41;3127928;28;20049;-69
2024/01/01 02:56:55;;;;;;;112.65;51.40;;;;;;;5.19;79.34;99819.00;3127433;28;19990;-69
2024/01/01 02:58:26;;;;;;;116.85;55.97;;;;;;;5.20;79.19;99818.97;3126814;28;20057;-69
2024/01/01 02:59:58;;;;;;;120.25;55.33;;;;;;;5.20;79.45;99820.69;3127268;28;20133;-69
2024/01/01 03:01:29;;;;;;;124.25;56.58;;;;;;;5.20;79.41;99813.81;3127060;28;20053;-69
2024/01/01 03:03:00;;;;;;;121.57;56.80;;;;;;;5.21;79.42;99809.50;3127156;28;20049;-69
2024/01/01 03:04:32;;;;;;;125.80;54.80;;;;;;;5.19;79.29;99809.53;3127260;28;20041;-69
2024/01/01 03:06:06;;;;;;;130.35;55.58;;;;;;;5.19;79.36;99817.28;3127319;28;20143;-69
2024/01/01 03:07:37;;;;;;;123.20;55.88;;;;;;;5.18;79.43;99822.50;3127657;28;20056;-69
2024/01/01 03:09:11;;;;;;;124.05;56.60;;;;;;;5.16;79.61;99809.59;3127338;28;20052;-69
2024/01/01 03:10:41;;;;;;;119.32;56.65;;;;;;;5.14;79.78;99816.53;3127112;28;20445;-69
2024/01/01 03:12:13;;;;;;;120.28;57.63;;;;;;;5.15;79.83;99807.91;3127246;28;20095;-70
2024/01/01 03:13:44;;;;;;;120.68;56.33;;;;;;;5.12;79.99;99810.56;3127164;28;20049;-69
2024/01/01 03:15:16;;;;;;;123.53;55.08;;;;;;;5.15;79.82;99809.66;3127267;28;20063;-69
2024/01/01 03:16:47;;;;;;;125.70;58.47;;;;;;;5.16;79.89;99811.34;3127232;28;20444;-69
2024/01/01 03:18:21;;;;;;;121.95;56.58;;;;;;;5.15;79.92;99809.66;3127361;28;20109;-69
2024/01/01 03:19:52;;;;;;;116.10;55.50;;;;;;;5.15;79.92;99813.09;3127115;28;20052;-69
2024/01/01 03:21:23;;;;;;;115.32;54.83;;;;;;;5.16;79.76;99811.34;3126979;28;20506;-69
2024/01/01 03:22:54;;;;;;;119.72;54.42;;;;;;;5.04;79.79;99793.56;3127182;28;20044;-69
2024/01/01 03:24:27;;;;;;;122.47;56.63;;;;;;;5.14;79.57;99803.63;3127031;28;20122;-69
2024/01/01 03:25:58;;;;;;;116.85;55.67;;;;;;;5.11;79.61;99808.00;3127193;28;20105;-69
2024/01/01 03:27:30;;;;;;;124.47;57.08;;;;;;;5.05;79.58;99809.00;3126809;28;20563;-69
2024/01/01 03:29:01;;;;;;;126.55;56.08;;;;;;;4.99;79.64;99807.38;3127019;28;20518;-68
2024/01/01 03:30:33;;;;;;;114.55;55.60;;;;;;;4.97;79.72;99811.75;3126901;28;20118;-69
2024/01/01 03:32:04;;;;;;;114.55;52.83;;;;;;;4.96;79.70;99796.28;3127127;28;20118;-70
2024/01/01 03:33:36;;;;;;;114.13;53.92;;;;;;;4.94;79.54;99798.06;3118141;28;20575;-67
2024/01/01 03:35:07;;;;;;;127.95;56.25;;;;;;;4.93;79.40;99802.38;3130507;28;20623;-68
2024/01/01 03:36:39;;;;;;;121.35;56.53;;;;;;;4.93;79.46;99798.94;3128206;28;20052;-68
2024/01/01 03:38:10;;;;;;;118.03;55.95;;;;;;;4.91;79.41;99792.97;3126951;28;20111;-68
2024/01/01 03:39:43;;;;;;;122.97;55.05;;;;;;;4.91;79.46;99792.97;3126982;28;20106;-68
2024/01/01 03:41:14;;;;;;;114.28;55.05;;;;;;;4.88;79.40;99795.59;3126926;28;20080;-68
2024/01/01 03:42:46;;;;;;;121.53;54.92;;;;;;;4.87;79.39;99801.66;3126562;28;20057;-68
2024/01/01 03:44:17;;;;;;;121.07;55.10;;;;;;;4.85;79.31;99800.84;3131490;28;20045;-68
2024/01/01 03:45:49;;;;;;;122.22;53.97;;;;;;;4.84;79.19;99802.56;3132204;28;20047;-68
2024/01/01 03:47:19;;;;;;;121.22;56.60;;;;;;;4.82;79.21;99801.75;3136844;28;20052;-68
2024/01/01 03:48:51;;;;;;;121.80;56.05;;;;;;;4.81;79.08;99801.81;3134186;28;20423;-68
2024/01/01 03:50:22;;;;;;;118.80;55.75;;;;;;;4.78;79.03;99790.66;3134744;28;20045;-68
2024/01/01 03:51:54;;;;;;;124.80;55.80;;;;;;;4.78;79.09;99792.38;3134377;28;20533;-68
2024/01/01 03:53:25;;;;;;;120.50;53.83;;;;;;;4.75;79.03;99798.47;3134776;28;20049;-68
2024/01/01 03:54:58;;;;;;;115.00;55.35;;;;;;;4.75;79.07;99793.31;3134567;28;20331;-68
2024/01/01 03:56:29;;;;;;;117.68;52.60;;;;;;;4.72;78.98;99806.25;3134819;28;20059;-68
2024/01/01 03:58:01;;;;;;;111.90;52.88;;;;;;;4.69;79.00;99801.16;3134608;28;20084;-68
2024/01/01 03:59:32;;;;;;;127.40;55.38;;;;;;;4.68;78.98;99796.91;3134395;28;20514;-67
2024/01/01 04:01:04;;;;;;;121.90;56.08;;;;;;;4.67;79.00;99795.19;3134479;28;20064;-68
2024/01/01 04:02:35;;;;;;;119.22;55.45;;;;;;;4.66;79.03;99797.81;3134472;28;20056;-68
2024/01/01 04:04:06;;;;;;;109.25;53.10;;;;;;;4.66;78.91;99801.25;3134608;28;20052;-68
2024/01/01 04:05:37;;;;;;;119.97;56.10;;;;;;;4.30;79.00;99734.09;3134615;28;20059;-69
2024/01/01 04:07:09;;;;;;;122.65;55.78;;;;;;;4.64;79.06;99797.84;3134647;28;20467;-69
2024/01/01 04:08:40;;;;;;;122.20;55.30;;;;;;;4.63;78.97;99796.16;3134524;28;20049;-69
2024/01/01 04:10:13;;;;;;;115.82;53.75;;;;;;;4.63;79.15;99797.88;3134332;28;20059;-68
2024/01/01 04:11:44;;;;;;;115.75;54.55;;;;;;;4.60;79.23;99801.38;3134341;28;20045;-68
2024/01/01 04:13:15;;;;;;;108.47;52.65;;;;;;;4.59;79.43;99797.09;3134378;28;20044;-69
2024/01/01 04:14:46;;;;;;;118.50;53.58;;;;;;;4.58;79.37;99800.53;3134563;28;20061;-69
2024/01/01 04:16:18;;;;;;;115.90;55.42;;;;;;;4.59;79.71;99794.53;3134467;28;20052;-68
2024/01/01 04:17:49;;;;;;;111.80;54.42;;;;;;;4.60;79.78;99801.38;3134120;28;20037;-68
2024/01/01 04:19:21;;;;;;;118.93;54.50;;;;;;;4.60;79.72;99801.38;3134319;28;20490;-69
2024/01/01 04:20:53;;;;;;;109.30;53.15;;;;;;;4.57;79.72;99801.44;3134405;28;20136;-69
2024/01/01 04:22:24;;;;;;;111.03;51.95;;;;;;;4.57;79.69;99801.44;3134395;28;20447;-68
2024/01/01 04:23:58;;;;;;;108.15;51.25;;;;;;;4.40;79.80;99763.09;3125118;28;20056;-69
2024/01/01 04:25:31;;;;;;;108.28;49.78;;;;;;;4.57;80.02;99791.13;3134222;28;20049;-69
2024/01/01 04:27:02;;;;;;;103.45;49.72;;;;;;;4.55;80.05;99788.59;3133923;28;20053;-68
2024/01/01 04:28:34;;;;;;;115.88;52.38;;;;;;;4.55;80.01;99787.72;3133976;28;20052;-68
2024/01/01 04:30:06;;;;;;;106.85;50.65;;;;;;;4.56;79.98;99785.13;3134232;28;20056;-69
2024/01/01 04:31:38;;;;;;;105.43;51.00;;;;;;;4.55;80.07;99787.72;3133768;28;20641;-69
2024/01/01 04:33:09;;;;;;;106.32;48.63;;;;;;;4.55;80.09;99788.59;3134218;28;20052;-69
2024/01/01 04:34:40;;;;;;;110.57;49.10;;;;;;;4.55;80.11;99785.13;3133988;28;20429;-69
2024/01/01 04:36:12;;;;;;;101.70;45.97;;;;;;;4.54;80.20;99786.88;3139711;28;20052;-68
2024/01/01 04:37:43;;;;;;;102.60;48.03;;;;;;;4.54;80.27;99786.88;3134325;28;20044;-69
2024/01/01 04:39:15;;;;;;;100.95;46.55;;;;;;;4.52;80.55;99793.78;3134124;28;20461;-69
2024/01/01 04:40:47;;;;;;;100.38;47.88;;;;;;;4.52;80.51;99792.94;3133820;28;20049;-69
2024/01/01 04:42:19;;;;;;;96.60;45.72;;;;;;;4.49;80.68;99795.56;3133173;28;20049;-69
2024/01/01 04:43:49;;;;;;;99.43;45.53;;;;;;;4.49;80.73;99783.53;3124080;28;20045;-69
2024/01/01 04:45:22;;;;;;;87.95;43.03;;;;;;;4.50;80.73;99790.41;3133056;28;20068;-69
2024/01/01 04:46:53;;;;;;;90.68;41.90;;;;;;;4.46;80.75;99775.84;3133275;28;20053;-67
2024/01/01 04:48:25;;;;;;;96.53;45.08;;;;;;;4.49;80.88;99791.25;3133253;28;20437;-68
2024/01/01 04:49:55;;;;;;;85.10;41.75;;;;;;;4.50;80.78;99789.56;3133163;28;20064;-68
2024/01/01 04:51:27;;;;;;;82.18;38.40;;;;;;;4.50;80.64;99789.56;3121044;28;20053;-68
2024/01/01 04:52:58;;;;;;;74.93;37.08;;;;;;;4.50;80.57;99781.81;3132852;28;20053;-67
2024/01/01 04:54:30;;;;;;;77.63;37.88;;;;;;;4.48;80.54;99784.41;3133037;28;20128;-68
2024/01/01 04:56:02;;;;;;;74.15;36.83;;;;;;;4.49;80.44;99783.53;3133178;28;20056;-70
2024/01/01 04:57:34;;;;;;;80.07;38.33;;;;;;;4.47;80.30;99784.47;3133270;28;20107;-69
2024/01/01 04:59:06;;;;;;;76.40;34.47;;;;;;;4.44;80.38;99782.78;3132719;28;20647;-68
2024/01/01 05:00:38;;;;;;;75.90;36.53;;;;;;;4.44;80.25;99776.78;3133282;28;20096;-69
2024/01/01 05:02:09;;;;;;;72.10;35.58;;;;;;;4.42;80.27;99773.38;3132192;28;20056;-69
2024/01/01 05:03:41;;;;;;;72.30;35.60;;;;;;;4.41;80.13;99781.97;3133050;28;20486;-67
2024/01/01 05:05:12;;;;;;;75.63;36.45;;;;;;;4.39;80.07;99769.13;3133172;28;20049;-69
2024/01/01 05:06:44;;;;;;;69.63;35.63;;;;;;;4.40;80.24;99777.72;3132983;28;20086;-69
2024/01/01 05:08:15;;;;;;;71.40;33.10;;;;;;;4.39;80.14;99776.03;3133144;28;20045;-66
2024/01/01 05:09:46;;;;;;;68.30;32.90;;;;;;;4.40;80.17;99785.44;3133216;28;20061;-68
2024/01/01 05:11:19;;;;;;;68.85;32.28;;;;;;;4.40;80.17;99781.13;3132824;28;20076;-69
2024/01/01 05:12:50;;;;;;;60.22;31.42;;;;;;;4.39;80.17;99779.44;3130879;28;20464;-69
2024/01/01 05:14:21;;;;;;;73.07;32.58;;;;;;;4.40;80.25;99781.13;3124529;28;20059;-69
2024/01/01 05:15:53;;;;;;;59.85;29.83;;;;;;;4.41;80.28;99776.81;3133045;28;20049;-67
2024/01/01 05:17:24;;;;;;;62.25;30.17;;;;;;;4.36;80.49;99774.34;3132932;28;20045;-69
2024/01/01 05:18:55;;;;;;;65.93;30.35;;;;;;;4.39;80.61;99781.19;3132972;28;20053;-69
2024/01/01 05:20:26;;;;;;;62.05;29.35;;;;;;;4.36;80.53;99771.78;3132473;28;20065;-67
2024/01/01 05:21:58;;;;;;;60.85;30.08;;;;;;;4.39;80.56;99782.03;3132866;28;20434;-69
2024/01/01 05:23:30;;;;;;;63.05;29.75;;;;;;;4.38;80.43;99779.47;3132934;28;20056;-69
2024/01/01 05:25:01;;;;;;;71.85;30.23;;;;;;;4.39;80.52;99776.03;3132823;28;20052;-69
2024/01/01 05:26:34;;;;;;;64.63;30.85;;;;;;;4.36;80.30;99763.19;3132851;28;20053;-69
2024/01/01 05:28:07;;;;;;;66.68;31.70;;;;;;;4.36;80.39;99765.78;3132593;28;20053;-69
2024/01/01 05:29:41;;;;;;;62.88;30.13;;;;;;;4.36;80.24;99764.03;3132833;28;20060;-68
2024/01/01 05:31:18;;;;;;;59.67;29.95;;;;;;;4.35;80.32;99762.34;3132649;28;20053;-68
2024/01/01 05:32:50;;;;;;;58.25;29.33;;;;;;;4.33;80.28;99759.78;3132860;28;20053;-67
2024/01/01 05:34:21;;;;;;;63.53;30.15;;;;;;;4.33;80.24;99767.53;3132633;28;20071;-66
2024/01/01 05:35:52;;;;;;;64.20;30.80;;;;;;;4.33;80.13;99764.94;3137306;28;20430;-68
2024/01/01 05:37:23;;;;;;;62.90;30.90;;;;;;;4.31;80.16;99764.13;3132680;28;20144;-68
2024/01/01 05:38:55;;;;;;;61.10;29.25;;;;;;;4.30;80.19;99767.59;3135451;28;20060;-67
2024/01/01 05:40:26;;;;;;;64.65;30.70;;;;;;;4.33;80.01;99769.25;3142652;28;20056;-68
2024/01/01 05:41:59;;;;;;;62.47;31.98;;;;;;;4.31;80.07;99771.84;3088712;28;1278241;-68
2024/01/01 05:43:31;;;;;;;63.20;30.35;;;;;;;4.28;80.00;99769.34;3132597;28;20048;-67
2024/01/01 05:45:03;;;;;;;64.15;32.08;;;;;;;4.28;79.94;99769.34;3133551;28;20037;-68
2024/01/01 05:46:34;;;;;;;67.43;31.95;;;;;;;4.27;79.88;99772.81;3121048;28;20438;-68
2024/01/01 05:48:06;;;;;;;67.85;33.25;;;;;;;4.14;79.92;99748.19;3132619;28;20053;-67
2024/01/01 05:49:37;;;;;;;66.43;33.70;;;;;;;4.23;79.87;99768.59;3133328;28;20049;-68
2024/01/01 05:51:09;;;;;;;71.75;33.25;;;;;;;4.21;79.83;99770.34;3133422;28;20049;-68
2024/01/01 05:52:40;;;;;;;69.18;35.50;;;;;;;4.20;79.81;99763.50;3133206;28;20486;-65
2024/01/01 05:54:12;;;;;;;79.78;36.55;;;;;;;3.99;79.80;99741.56;3133147;28;20049;-68
2024/01/01 05:55:42;;;;;;;79.65;37.67;;;;;;;4.16;79.71;99764.44;3133209;28;20463;-67
2024/01/01 05:57:16;;;;;;;81.55;39.13;;;;;;;4.17;79.67;99761.00;3133075;28;20053;-67
2024/01/01 05:58:47;;;;;;;79.70;40.17;;;;;;;4.10;79.75;99759.41;3133155;28;20055;-70
2024/01/01 06:00:20;;;;;;;85.90;41.97;;;;;;;4.10;79.65;99762.81;3133108;28;20458;-68
2024/01/01 06:01:50;;;;;;;81.60;41.35;;;;;;;4.08;79.54;99766.31;3133118;28;20371;-69
2024/01/01 06:03:22;;;;;;;87.78;41.70;;;;;;;4.05;79.50;99764.66;3133194;28;20060;-69
2024/01/01 06:04:53;;;;;;;81.32;40.38;;;;;;;4.04;79.56;99770.69;3132940;28;20045;-69
2024/01/01 06:06:25;;;;;;;91.93;43.40;;;;;;;4.04;79.48;99764.69;3132868;28;20465;-67
2024/01/01 06:07:56;;;;;;;84.65;43.28;;;;;;;4.02;79.46;99761.28;3133174;28;20509;-69
2024/01/01 06:09:27;;;;;;;84.97;41.28;;;;;;;4.01;79.38;99767.31;3132932;28;20049;-69
2024/01/01 06:10:58;;;;;;;86.35;40.65;;;;;;;4.01;79.36;99769.88;3132047;28;20053;-69
2024/01/01 06:12:31;;;;;;;88.53;37.75;;;;;;;4.00;79.28;99771.63;3133027;28;20411;-68
2024/01/01 06:14:02;;;;;;;73.90;38.35;;;;;;;3.98;79.41;99770.78;3132801;28;20453;-68
2024/01/01 06:15:34;;;;;;;85.50;40.53;;;;;;;3.99;79.34;99769.91;3132903;28;20053;-68
2024/01/01 06:17:05;;;;;;;83.15;38.53;;;;;;;4.01;79.53;99762.16;3132529;28;20118;-69
2024/01/01 06:18:37;;;;;;;84.30;39.80;;;;;;;4.01;79.52;99763.00;3132929;28;20175;-68
2024/01/01 06:20:08;;;;;;;86.25;40.65;;;;;;;4.02;79.50;99762.16;3132798;28;20045;-67
2024/01/01 06:21:40;;;;;;;87.82;40.65;;;;;;;4.06;79.39;99760.34;3132945;28;20048;-68
2024/01/01 06:23:11;;;;;;;82.43;39.08;;;;;;;4.09;79.47;99757.72;3132791;28;20048;-66
2024/01/01 06:24:42;;;;;;;88.35;41.45;;;;;;;4.11;79.45;99761.09;3133051;28;20041;-70
2024/01/01 06:26:14;;;;;;;83.80;42.33;;;;;;;4.15;79.63;99765.31;3132901;28;20461;-68
2024/01/01 06:27:47;;;;;;;93.38;40.92;;;;;;;4.17;79.50;99763.56;3132856;28;20525;-69
2024/01/01 06:29:18;;;;;;;93.82;44.03;;;;;;;4.21;79.55;99766.94;3132768;28;20048;-70
2024/01/01 06:30:49;;;;;;;86.55;42.28;;;;;;;4.24;79.44;99765.13;3132823;28;20450;-69
2024/01/01 06:32:21;;;;;;;90.03;42.33;;;;;;;4.28;79.48;99766.75;3132730;28;20044;-69
2024/01/01 06:33:52;;;;;;;82.38;40.47;;;;;;;4.34;79.44;99765.78;3132787;28;20056;-69
2024/01/01 06:35:28;;;;;;;78.78;38.85;;;;;;;4.40;79.34;99769.97;3133793;28;20041;-69
2024/01/01 06:36:59;;;;;;;91.22;40.72;;;;;;;4.46;79.32;99769.84;3132871;28;20047;-69
2024/01/01 06:38:30;;;;;;;89.80;40.40;;;;;;;4.48;79.32;99768.09;3132681;28;20437;-69
2024/01/01 06:40:03;;;;;;;91.18;42.85;;;;;;;4.59;79.45;99767.88;3132763;28;20106;-69
2024/01/01 06:41:35;;;;;;;95.22;41.35;;;;;;;4.66;79.21;99766.88;3132660;28;20087;-69
2024/01/01 06:43:07;;;;;;;77.63;35.90;;;;;;;4.70;79.25;99774.50;3132229;28;20061;-69
2024/01/01 06:44:39;;;;;;;75.03;36.35;;;;;;;4.76;79.27;99768.34;3132451;28;20132;-68
2024/01/01 06:46:11;;;;;;;77.47;36.58;;;;;;;4.85;79.31;99772.47;3132708;28;20071;-69
2024/01/01 06:47:43;;;;;;;68.93;33.17;;;;;;;4.91;79.34;99773.19;3132703;28;20057;-70
2024/01/01 06:49:15;;;;;;;68.13;32.25;;;;;;;4.96;79.23;99780.81;3132484;28;20060;-69
2024/01/01 06:50:45;;;;;;;65.95;31.60;;;;;;;5.01;79.16;99776.41;3132462;28;20044;-68
2024/01/01 06:52:18;;;;;;;71.00;33.10;;;;;;;5.01;79.24;99774.66;3132644;28;20514;-69
2024/01/01 06:53:48;;;;;;;69.00;32.03;;;;;;;5.06;79.22;99786.59;3132556;28;20048;-69
2024/01/01 06:55:22;;;;;;;68.85;33.50;;;;;;;5.06;79.08;99781.44;3132459;28;20051;-69
2024/01/01 06:56:52;;;;;;;71.43;31.10;;;;;;;5.05;79.23;99782.34;3132499;28;20106;-69
2024/01/01 06:58:25;;;;;;;62.35;29.15;;;;;;;5.09;79.14;99783.94;3132353;28;20136;-68
2024/01/01 06:59:56;;;;;;;61.70;27.67;;;;;;;5.10;79.23;99785.66;3132741;28;20076;-69
2024/01/01 07:01:28;;;;;;;58.53;26.77;;;;;;;5.12;79.17;99789.06;3132254;28;20106;-70
2024/01/01 07:02:59;;;;;;;53.10;25.42;;;;;;;5.15;79.23;99791.59;3132434;28;20053;-67